Time;durP1;ratioP1;P1;durP2;ratioP2;P2;SDS_P1;SDS_P2;PMS_P1;PMS_P2;Temp;Humidity;BMP_temperature;BMP_pressure;BME280_temperature;BME280_humidity;BME280_pressure;Samples;Min_cycle;Max_cycle;Signal;HPM_P1;HPM_P2
2023/06/10 00:01:59;;;;;;;9.32;4.30;;;;;;;;;;5051806;28;20051;-77
2023/06/10 00:04:26;;;;;;;8.05;4.53;;;;;;;;;;5020023;28;20041;-77
2023/06/10 00:06:53;;;;;;;9.43;4.60;;;;;;;;;;5051750;28;20041;-77
2023/06/10 00:09:21;;;;;;;11.82;4.97;;;;;;;;;;5035039;28;20104;-77
2023/06/10 00:11:47;;;;;;;8.30;4.40;;;;;;;;;;5051651;28;20551;-77
2023/06/10 00:14:13;;;;;;;7.03;4.15;;;;;;;;;;5052316;28;20516;-77
2023/06/10 00:16:39;;;;;;;7.07;3.88;;;;;;;;;;5056094;28;20048;-77
2023/06/10 00:19:06;;;;;;;10.05;4.68;;;;;;;;;;5051241;28;20049;-77
2023/06/10 00:21:37;;;;;;;9.50;4.68;;;;;;;;;;5051483;28;20402;-77
2023/06/10 00:24:11;;;;;;;8.35;4.35;;;;;;;;;;5053161;28;20052;-76
2023/06/10 00:26:38;;;;;;;8.30;4.65;;;;;;;;;;5053498;28;20041;-77
2023/06/10 00:29:05;;;;;;;9.88;4.53;;;;;;;;;;5066824;28;20042;-76
2023/06/10 00:31:31;;;;;;;10.68;4.47;;;;;;;;;;5051418;28;20033;-77
2023/06/10 00:33:58;;;;;;;9.23;4.50;;;;;;;;;;5051605;28;20405;-77
2023/06/10 00:36:24;;;;;;;7.47;4.10;;;;;;;;;;5053637;28;20048;-77
2023/06/10 00:38:50;;;;;;;10.38;4.50;;;;;;;;;;5051040;28;20513;-76
2023/06/10 00:41:17;;;;;;;13.60;4.57;;;;;;;;;;5051287;28;20071;-76
2023/06/10 00:43:43;;;;;;;9.18;4.53;;;;;;;;;;5051597;28;20033;-77
2023/06/10 00:46:09;;;;;;;11.18;5.07;;;;;;;;;;5050929;28;20053;-77
2023/06/10 00:48:35;;;;;;;12.27;4.90;;;;;;;;;;5084017;28;20124;-77
2023/06/10 00:51:02;;;;;;;8.65;4.88;;;;;;;;;;5051056;28;20052;-77
2023/06/10 00:53:28;;;;;;;9.13;4.75;;;;;;;;;;5034826;28;20056;-77
2023/06/10 00:55:54;;;;;;;10.48;4.90;;;;;;;;;;5051294;28;20378;-77
2023/06/10 00:58:21;;;;;;;8.32;4.50;;;;;;;;;;5052469;28;20057;-77
2023/06/10 01:00:47;;;;;;;9.88;5.18;;;;;;;;;;5051197;28;20045;-76
2023/06/10 01:03:14;;;;;;;10.13;4.88;;;;;;;;;;5026801;28;20447;-77
2023/06/10 01:05:41;;;;;;;9.32;5.00;;;;;;;;;;5046542;28;20102;-76
2023/06/10 01:08:15;;;;;;;11.55;5.53;;;;;;;;;;5051856;28;20047;-77
2023/06/10 01:10:50;;;;;;;7.15;4.60;;;;;;;;;;5034649;28;20056;-77
2023/06/10 01:13:17;;;;;;;;;;;;;;;;;;5053025;28;20113;-77
2023/06/10 01:15:44;;;;;;;9.10;4.97;;;;;;;;;;5034348;28;19973;-77
2023/06/10 01:18:14;;;;;;;9.30;4.93;;;;;;;;;;5051412;28;20049;-77
2023/06/10 01:20:42;;;;;;;10.80;4.75;;;;;;;;;;5050508;28;20045;-77
2023/06/10 01:23:08;;;;;;;10.20;4.80;;;;;;;;;;5049542;28;20041;-77
2023/06/10 01:25:37;;;;;;;12.00;5.38;;;;;;;;;;5051174;28;20044;-77
2023/06/10 01:28:23;;;;;;;14.50;5.15;;;;;;;;;;5051369;28;20052;-77
2023/06/10 01:30:56;;;;;;;9.50;5.10;;;;;;;;;;5083834;28;20048;-77
2023/06/10 01:33:28;;;;;;;10.70;4.95;;;;;;;;;;5050989;28;20513;-77
2023/06/10 01:35:54;;;;;;;12.18;4.90;;;;;;;;;;5050314;28;20048;-77
2023/06/10 01:38:21;;;;;;;11.25;5.30;;;;;;;;;;5050617;28;20029;-77
2023/06/10 01:40:48;;;;;;;9.23;5.15;;;;;;;;;;5032404;28;20450;-77
2023/06/10 01:43:14;;;;;;;11.50;5.25;;;;;;;;;;5050067;28;20831;-76
2023/06/10 01:45:40;;;;;;;8.55;5.30;;;;;;;;;;5033898;28;20060;-77
2023/06/10 01:48:07;;;;;;;11.55;5.13;;;;;;;;;;5033589;28;20045;-77
2023/06/10 01:50:33;;;;;;;9.60;5.00;;;;;;;;;;5041030;28;20055;-77
2023/06/10 01:53:00;;;;;;;11.27;5.35;;;;;;;;;;5050151;28;20044;-77
2023/06/10 01:55:26;;;;;;;9.70;5.38;;;;;;;;;;5050778;28;20041;-77
2023/06/10 01:57:52;;;;;;;9.30;5.30;;;;;;;;;;5030427;28;20052;-76
2023/06/10 02:00:18;;;;;;;9.63;5.18;;;;;;;;;;5034429;28;20041;-77
2023/06/10 02:02:44;;;;;;;10.00;5.53;;;;;;;;;;5037549;28;20052;-77
2023/06/10 02:05:11;;;;;;;10.13;5.57;;;;;;;;;;5048755;28;20071;-77
2023/06/10 02:07:37;;;;;;;11.23;5.30;;;;;;;;;;5049275;28;20037;-77
2023/06/10 02:10:05;;;;;;;9.85;5.10;;;;;;;;;;5050231;28;20048;-77
2023/06/10 02:12:31;;;;;;;9.45;4.95;;;;;;;;;;5050857;28;20045;-77
2023/06/10 02:14:57;;;;;;;9.02;4.97;;;;;;;;;;5050435;28;20481;-77
2023/06/10 02:17:23;;;;;;;11.75;5.25;;;;;;;;;;5049997;28;20115;-77
2023/06/10 02:19:52;;;;;;;10.00;5.32;;;;;;;;;;5051460;28;20037;-77
2023/06/10 02:22:22;;;;;;;10.43;5.30;;;;;;;;;;5059854;28;20055;-77
2023/06/10 02:24:49;;;;;;;9.40;5.55;;;;;;;;;;5033785;28;20389;-77
2023/06/10 02:27:15;;;;;;;10.25;5.53;;;;;;;;;;5033124;28;20045;-77
2023/06/10 02:29:43;;;;;;;15.02;6.28;;;;;;;;;;5049711;28;20037;-77
2023/06/10 02:32:09;;;;;;;10.75;4.90;;;;;;;;;;5050987;28;20044;-77
2023/06/10 02:34:36;;;;;;;11.65;5.50;;;;;;;;;;5053707;28;20529;-77
2023/06/10 02:37:03;;;;;;;11.85;5.57;;;;;;;;;;5053541;28;20051;-77
2023/06/10 02:39:29;;;;;;;13.02;5.22;;;;;;;;;;5054270;28;20517;-77
2023/06/10 02:41:55;;;;;;;8.77;5.43;;;;;;;;;;5036881;28;20056;-77
2023/06/10 02:44:21;;;;;;;10.55;5.32;;;;;;;;;;5054430;28;20054;-77
2023/06/10 02:46:47;;;;;;;9.30;5.28;;;;;;;;;;5053696;28;20092;-77
2023/06/10 02:49:14;;;;;;;9.88;5.47;;;;;;;;;;5053387;28;20111;-77
2023/06/10 02:51:40;;;;;;;8.57;5.40;;;;;;;;;;5054871;28;20521;-77
2023/06/10 02:54:06;;;;;;;10.23;4.95;;;;;;;;;;5053788;28;20049;-75
2023/06/10 02:56:33;;;;;;;11.15;5.68;;;;;;;;;;5037345;28;20037;-76
2023/06/10 02:58:59;;;;;;;10.02;5.35;;;;;;;;;;5053639;28;20051;-76
2023/06/10 03:01:25;;;;;;;13.00;5.50;;;;;;;;;;5036631;28;20045;-86
2023/06/10 03:03:52;;;;;;;8.27;5.10;;;;;;;;;;5058653;28;20046;-86
2023/06/10 03:06:18;;;;;;;10.07;5.45;;;;;;;;;;5054967;28;20040;-86
2023/06/10 03:08:45;;;;;;;12.38;5.15;;;;;;;;;;5053794;28;20477;-86
2023/06/10 03:11:12;;;;;;;10.07;5.20;;;;;;;;;;5052831;28;20056;-86
2023/06/10 03:13:40;;;;;;;12.98;5.68;;;;;;;;;;5053449;28;20083;-86
2023/06/10 03:16:07;;;;;;;15.15;5.82;;;;;;;;;;5036905;28;20048;-86
2023/06/10 03:18:33;;;;;;;12.00;5.55;;;;;;;;;;5054731;28;20075;-86
2023/06/10 03:21:00;;;;;;;9.07;5.03;;;;;;;;;;5020378;28;20044;-86
2023/06/10 03:23:27;;;;;;;10.27;5.22;;;;;;;;;;5052540;28;20047;-86
2023/06/10 03:25:54;;;;;;;8.52;4.75;;;;;;;;;;5036626;28;20386;-86
2023/06/10 03:28:21;;;;;;;13.65;5.43;;;;;;;;;;5053007;28;20496;-86
2023/06/10 03:30:47;;;;;;;11.00;5.32;;;;;;;;;;5036327;28;20041;-86
2023/06/10 03:33:13;;;;;;;8.23;5.05;;;;;;;;;;5053819;28;20071;-86
2023/06/10 03:35:40;;;;;;;10.57;4.85;;;;;;;;;;5053826;28;20060;-86
2023/06/10 03:38:06;;;;;;;10.35;5.22;;;;;;;;;;5053169;28;20041;-86
2023/06/10 03:40:32;;;;;;;11.77;5.35;;;;;;;;;;5052342;28;20124;-86
2023/06/10 03:42:58;;;;;;;9.60;5.05;;;;;;;;;;5052968;28;20171;-86
2023/06/10 03:45:25;;;;;;;8.52;4.82;;;;;;;;;;5052764;28;20036;-86
2023/06/10 03:47:51;;;;;;;13.15;5.07;;;;;;;;;;5063537;28;20124;-86
2023/06/10 03:50:17;;;;;;;8.32;4.88;;;;;;;;;;5052276;28;20036;-86
2023/06/10 03:52:45;;;;;;;10.68;4.95;;;;;;;;;;5052619;28;20053;-86
2023/06/10 03:55:13;;;;;;;9.90;4.75;;;;;;;;;;5052654;28;20045;-86
2023/06/10 03:57:39;;;;;;;10.98;4.93;;;;;;;;;;5053687;28;20461;-86
2023/06/10 04:00:12;;;;;;;10.77;5.05;;;;;;;;;;5052748;28;20482;-86
2023/06/10 04:02:45;;;;;;;9.07;4.78;;;;;;;;;;5022398;28;20041;-86
2023/06/10 04:05:15;;;;;;;10.55;4.63;;;;;;;;;;5051480;28;20048;-86
2023/06/10 04:07:42;;;;;;;8.50;4.25;;;;;;;;;;5052786;28;20033;-86
2023/06/10 04:10:09;;;;;;;9.18;4.85;;;;;;;;;;5035534;28;20037;-86
2023/06/10 04:12:35;;;;;;;6.70;4.10;;;;;;;;;;5051817;28;20048;-86
2023/06/10 04:15:02;;;;;;;7.88;4.38;;;;;;;;;;5035395;28;20063;-86
2023/06/10 04:17:28;;;;;;;10.00;4.97;;;;;;;;;;5052859;28;20482;-86
2023/06/10 04:19:54;;;;;;;11.50;4.50;;;;;;;;;;5053300;28;20037;-86
2023/06/10 04:22:21;;;;;;;8.15;4.35;;;;;;;;;;5051542;28;20081;-86
2023/06/10 04:24:47;;;;;;;10.65;4.43;;;;;;;;;;5051831;28;20029;-77
2023/06/10 04:27:13;;;;;;;10.57;4.50;;;;;;;;;;5051965;28;20037;-77
2023/06/10 04:29:39;;;;;;;7.88;4.80;;;;;;;;;;5052813;28;20482;-85
2023/06/10 04:32:06;;;;;;;9.68;4.30;;;;;;;;;;5051852;28;20382;-86
2023/06/10 04:34:33;;;;;;;7.95;4.35;;;;;;;;;;5051844;28;20394;-86
2023/06/10 04:36:59;;;;;;;8.50;4.07;;;;;;;;;;5051714;28;20040;-85
2023/06/10 04:39:26;;;;;;;12.63;4.45;;;;;;;;;;5054161;28;20106;-85
2023/06/10 04:41:52;;;;;;;7.85;4.35;;;;;;;;;;5051180;28;20559;-86
2023/06/10 04:44:18;;;;;;;7.70;3.75;;;;;;;;;;5053071;28;20045;-86
2023/06/10 04:46:45;;;;;;;9.85;4.20;;;;;;;;;;5051561;28;20052;-86
2023/06/10 04:49:14;;;;;;;8.07;4.00;;;;;;;;;;5054208;28;20591;-85
2023/06/10 04:51:40;;;;;;;8.27;4.22;;;;;;;;;;5052658;28;20045;-85
2023/06/10 04:54:06;;;;;;;8.57;4.30;;;;;;;;;;5034859;28;20060;-86
2023/06/10 04:56:32;;;;;;;8.05;4.20;;;;;;;;;;5050397;28;20490;-86
2023/06/10 04:58:59;;;;;;;10.10;4.13;;;;;;;;;;5052097;28;20052;-85
2023/06/10 05:01:25;;;;;;;9.15;4.00;;;;;;;;;;5073254;28;20045;-86
2023/06/10 05:03:52;;;;;;;7.72;4.20;;;;;;;;;;5034288;28;20041;-86
2023/06/10 05:06:18;;;;;;;8.68;4.47;;;;;;;;;;5051039;28;20052;-86
2023/06/10 05:08:44;;;;;;;7.95;4.45;;;;;;;;;;5052250;28;20132;-86
2023/06/10 05:11:10;;;;;;;9.65;4.43;;;;;;;;;;5059771;28;20040;-86
2023/06/10 05:13:36;;;;;;;11.82;4.60;;;;;;;;;;5052120;28;20532;-86
2023/06/10 05:16:02;;;;;;;7.68;4.05;;;;;;;;;;5051016;28;20044;-86
2023/06/10 05:18:28;;;;;;;8.55;4.30;;;;;;;;;;5050487;28;20049;-86
2023/06/10 05:20:54;;;;;;;9.75;4.13;;;;;;;;;;5051801;28;20056;-86
2023/06/10 05:23:21;;;;;;;7.68;4.18;;;;;;;;;;5051145;28;20041;-86
2023/06/10 05:25:47;;;;;;;7.93;4.10;;;;;;;;;;5050753;28;20045;-86
2023/06/10 05:28:13;;;;;;;7.60;4.00;;;;;;;;;;5054652;28;20340;-86
2023/06/10 05:30:40;;;;;;;6.78;4.28;;;;;;;;;;5054647;28;20047;-87
2023/06/10 05:33:06;;;;;;;7.15;3.80;;;;;;;;;;5080660;28;20048;-86
2023/06/10 05:35:32;;;;;;;8.60;4.15;;;;;;;;;;5033645;28;20124;-87
2023/06/10 05:37:58;;;;;;;7.60;3.88;;;;;;;;;;5034183;28;20551;-87
2023/06/10 05:40:24;;;;;;;7.43;4.28;;;;;;;;;;5034218;28;20037;-86
2023/06/10 05:42:50;;;;;;;7.32;3.83;;;;;;;;;;5040905;28;20041;-86
2023/06/10 05:45:16;;;;;;;7.78;3.80;;;;;;;;;;5034531;28;20044;-86
2023/06/10 05:47:42;;;;;;;6.97;3.80;;;;;;;;;;5050217;28;20098;-87
2023/06/10 05:50:09;;;;;;;7.82;3.50;;;;;;;;;;5034139;28;20036;-86
2023/06/10 05:52:35;;;;;;;7.97;4.00;;;;;;;;;;5050320;28;20123;-86
2023/06/10 05:55:02;;;;;;;8.68;4.00;;;;;;;;;;5050624;28;20129;-86
2023/06/10 05:57:28;;;;;;;8.63;3.95;;;;;;;;;;5033150;28;20040;-86
2023/06/10 05:59:55;;;;;;;9.75;3.80;;;;;;;;;;5050615;28;20072;-86
2023/06/10 06:02:21;;;;;;;5.68;3.50;;;;;;;;;;5050396;28;20448;-87
2023/06/10 06:04:47;;;;;;;9.90;3.90;;;;;;;;;;5083738;28;20041;-86
2023/06/10 06:07:13;;;;;;;6.95;3.92;;;;;;;;;;5050456;28;20041;-86
2023/06/10 06:09:39;;;;;;;8.63;4.22;;;;;;;;;;5037042;28;20555;-86
2023/06/10 06:12:07;;;;;;;8.30;4.10;;;;;;;;;;5063459;28;20408;-83
2023/06/10 06:14:33;;;;;;;7.63;4.05;;;;;;;;;;5056524;28;20037;-84
2023/06/10 06:16:59;;;;;;;9.48;3.80;;;;;;;;;;5053884;28;20036;-87
2023/06/10 06:19:25;;;;;;;14.45;4.22;;;;;;;;;;5054388;28;20075;-84
2023/06/10 06:21:51;;;;;;;9.90;4.28;;;;;;;;;;5054127;28;20486;-84
2023/06/10 06:24:17;;;;;;;9.48;3.92;;;;;;;;;;5053624;28;20041;-85
2023/06/10 06:26:44;;;;;;;6.53;3.38;;;;;;;;;;5051472;28;20033;-85
2023/06/10 06:29:10;;;;;;;8.52;4.03;;;;;;;;;;5081162;28;20041;-86
2023/06/10 06:31:36;;;;;;;7.63;3.80;;;;;;;;;;5053765;28;20078;-84
2023/06/10 06:34:02;;;;;;;8.10;3.80;;;;;;;;;;5054448;28;20507;-86
2023/06/10 06:36:28;;;;;;;7.95;3.78;;;;;;;;;;5054077;28;20040;-86
2023/06/10 06:38:54;;;;;;;9.27;3.80;;;;;;;;;;5053428;28;20048;-87
2023/06/10 06:41:21;;;;;;;8.23;3.40;;;;;;;;;;5054904;28;20045;-84
2023/06/10 06:43:48;;;;;;;7.47;3.50;;;;;;;;;;5052804;28;20052;-84
2023/06/10 06:46:15;;;;;;;8.18;3.97;;;;;;;;;;5053109;28;20057;-84
2023/06/10 06:48:41;;;;;;;8.20;3.67;;;;;;;;;;5055305;28;20545;-84
2023/06/10 06:51:07;;;;;;;7.63;3.45;;;;;;;;;;5053187;28;20119;-84
2023/06/10 06:53:34;;;;;;;7.85;3.78;;;;;;;;;;5036151;28;20072;-84
2023/06/10 06:56:00;;;;;;;7.40;3.72;;;;;;;;;;5053003;28;20041;-84
2023/06/10 06:58:26;;;;;;;6.47;3.60;;;;;;;;;;5053102;28;20053;-84
2023/06/10 07:00:52;;;;;;;6.72;3.55;;;;;;;;;;5053238;28;20049;-84
2023/06/10 07:03:18;;;;;;;8.82;3.88;;;;;;;;;;5036899;28;20070;-84
2023/06/10 07:05:44;;;;;;;7.78;3.80;;;;;;;;;;5069545;28;20074;-86
2023/06/10 07:08:11;;;;;;;6.65;3.28;;;;;;;;;;5059000;28;20040;-84
2023/06/10 07:10:38;;;;;;;8.20;3.38;;;;;;;;;;5026110;28;20037;-84
2023/06/10 07:13:04;;;;;;;8.05;3.55;;;;;;;;;;5053278;28;20048;-84
2023/06/10 07:15:30;;;;;;;5.50;3.20;;;;;;;;;;5053223;28;20123;-85
2023/06/10 07:17:57;;;;;;;6.20;3.60;;;;;;;;;;5053106;28;20045;-85
2023/06/10 07:20:23;;;;;;;6.45;3.35;;;;;;;;;;5035787;28;20179;-85
2023/06/10 07:22:49;;;;;;;8.13;3.33;;;;;;;;;;5053411;28;20040;-84
2023/06/10 07:25:15;;;;;;;7.95;3.20;;;;;;;;;;5053760;28;20448;-84
2023/06/10 07:27:41;;;;;;;5.60;3.20;;;;;;;;;;5052885;28;20544;-84
2023/06/10 07:30:08;;;;;;;7.45;3.33;;;;;;;;;;5054351;28;20045;-85
2023/06/10 07:32:34;;;;;;;8.38;3.42;;;;;;;;;;5053187;28;20052;-85
2023/06/10 07:35:00;;;;;;;8.05;3.65;;;;;;;;;;5034394;28;20036;-84
2023/06/10 07:37:26;;;;;;;6.15;2.83;;;;;;;;;;5053360;28;20037;-84
2023/06/10 07:39:52;;;;;;;6.80;3.33;;;;;;;;;;5037815;28;20043;-84
2023/06/10 07:42:18;;;;;;;5.38;2.90;;;;;;;;;;5052733;28;20065;-84
2023/06/10 07:44:45;;;;;;;7.38;3.17;;;;;;;;;;5052222;28;20041;-84
2023/06/10 07:47:11;;;;;;;8.02;3.22;;;;;;;;;;5017098;28;20046;-84
2023/06/10 07:49:37;;;;;;;7.40;3.03;;;;;;;;;;5039566;28;20059;-84
2023/06/10 07:52:03;;;;;;;6.35;3.00;;;;;;;;;;5054136;28;20068;-84
2023/06/10 07:54:29;;;;;;;7.82;2.70;;;;;;;;;;5034335;28;20045;-85
2023/06/10 07:56:55;;;;;;;4.45;2.80;;;;;;;;;;5051771;28;20044;-84
2023/06/10 07:59:21;;;;;;;7.45;2.83;;;;;;;;;;5067721;28;20040;-84
2023/06/10 08:01:47;;;;;;;6.68;2.95;;;;;;;;;;5052497;28;20049;-84
2023/06/10 08:04:13;;;;;;;6.95;2.70;;;;;;;;;;5050455;28;20033;-84
2023/06/10 08:06:39;;;;;;;4.85;2.65;;;;;;;;;;5051526;28;20033;-84
2023/06/10 08:09:06;;;;;;;5.95;3.05;;;;;;;;;;5053017;28;20580;-83
2023/06/10 08:11:32;;;;;;;7.63;2.90;;;;;;;;;;5053930;28;20045;-84
2023/06/10 08:13:58;;;;;;;8.23;2.70;;;;;;;;;;5051982;28;20371;-83
2023/06/10 08:16:24;;;;;;;6.50;2.90;;;;;;;;;;5051988;28;20041;-84
2023/06/10 08:18:50;;;;;;;4.85;2.50;;;;;;;;;;5051610;28;20052;-84
2023/06/10 08:21:16;;;;;;;9.23;3.00;;;;;;;;;;5052583;28;20037;-83
2023/06/10 08:23:43;;;;;;;7.65;2.88;;;;;;;;;;5055121;28;20389;-83
2023/06/10 08:26:10;;;;;;;8.45;2.95;;;;;;;;;;5034728;28;20041;-84
2023/06/10 08:28:36;;;;;;;8.18;3.20;;;;;;;;;;5052109;28;20493;-84
2023/06/10 08:31:02;;;;;;;5.53;2.92;;;;;;;;;;5051143;28;20101;-83
2023/06/10 08:33:28;;;;;;;7.47;2.97;;;;;;;;;;5053425;28;20051;-83
2023/06/10 08:35:54;;;;;;;4.57;2.72;;;;;;;;;;5045524;28;20053;-83
2023/06/10 08:38:20;;;;;;;5.35;2.85;;;;;;;;;;5035000;28;20080;-83
2023/06/10 08:40:46;;;;;;;7.15;3.00;;;;;;;;;;5051074;28;20045;-83
2023/06/10 08:43:31;;;;;;;7.15;2.75;;;;;;;;;;5058994;28;20040;-84
2023/06/10 08:46:00;;;;;;;12.38;3.15;;;;;;;;;;5040063;28;20040;-84
2023/06/10 08:48:35;;;;;;;5.32;2.65;;;;;;;;;;5051722;28;20428;-83
2023/06/10 08:51:04;;;;;;;8.00;2.88;;;;;;;;;;5051230;28;20047;-84
2023/06/10 08:53:31;;;;;;;6.22;2.97;;;;;;;;;;5055002;28;20033;-83
2023/06/10 08:55:59;;;;;;;7.88;3.20;;;;;;;;;;5051573;28;20128;-83
2023/06/10 08:58:25;;;;;;;7.35;2.90;;;;;;;;;;5052258;28;20119;-83
2023/06/10 09:00:52;;;;;;;6.35;3.05;;;;;;;;;;5052203;28;20478;-83
2023/06/10 09:03:18;;;;;;;10.25;3.20;;;;;;;;;;5051461;28;20041;-84
2023/06/10 09:05:45;;;;;;;7.60;3.25;;;;;;;;;;5052808;28;20044;-83
2023/06/10 09:08:11;;;;;;;5.95;3.20;;;;;;;;;;5034591;28;20037;-83
2023/06/10 09:10:37;;;;;;;7.90;3.00;;;;;;;;;;5053496;28;20029;-84
2023/06/10 09:13:03;;;;;;;7.03;3.00;;;;;;;;;;5035143;28;20041;-83
2023/06/10 09:15:29;;;;;;;6.05;3.45;;;;;;;;;;5049951;28;20044;-83
2023/06/10 09:17:56;;;;;;;6.88;3.13;;;;;;;;;;5051969;28;20410;-84
2023/06/10 09:20:22;;;;;;;7.20;3.28;;;;;;;;;;5051791;28;20375;-83
2023/06/10 09:22:48;;;;;;;7.22;3.22;;;;;;;;;;5049992;28;20051;-84
2023/06/10 09:25:15;;;;;;;6.32;3.40;;;;;;;;;;5050174;28;20077;-84
2023/06/10 09:27:59;;;;;;;8.57;3.70;;;;;;;;;;5051016;28;20045;-84
2023/06/10 09:30:28;;;;;;;6.35;3.70;;;;;;;;;;5076624;28;20047;-83
2023/06/10 09:32:58;;;;;;;7.20;3.28;;;;;;;;;;5051360;28;20497;-83
2023/06/10 09:35:25;;;;;;;5.78;3.38;;;;;;;;;;5051115;28;20044;-84
2023/06/10 09:37:55;;;;;;;6.53;3.40;;;;;;;;;;5050705;28;20055;-84
2023/06/10 09:40:21;;;;;;;13.25;4.13;;;;;;;;;;5033798;28;20149;-84
2023/06/10 09:42:53;;;;;;;7.43;3.50;;;;;;;;;;5050452;28;20055;-83
2023/06/10 09:45:20;;;;;;;7.47;3.47;;;;;;;;;;5052557;28;20088;-83
2023/06/10 09:47:47;;;;;;;7.63;3.10;;;;;;;;;;5056278;28;20143;-83
2023/06/10 09:50:13;;;;;;;6.80;3.40;;;;;;;;;;5050209;28;20056;-83
2023/06/10 09:52:39;;;;;;;4.93;3.25;;;;;;;;;;5050975;28;20079;-83
2023/06/10 09:55:09;;;;;;;7.10;3.28;;;;;;;;;;5050852;28;20076;-83
2023/06/10 09:57:35;;;;;;;6.10;3.42;;;;;;;;;;5050686;28;20127;-84
2023/06/10 10:00:05;;;;;;;11.02;3.33;;;;;;;;;;5052030;28;20059;-84
2023/06/10 10:02:32;;;;;;;6.95;3.42;;;;;;;;;;5032746;28;20033;-84
2023/06/10 10:05:07;;;;;;;5.32;3.30;;;;;;;;;;5050696;28;20036;-84
2023/06/10 10:07:33;;;;;;;4.63;3.20;;;;;;;;;;5081274;28;20039;-84
2023/06/10 10:09:59;;;;;;;9.52;3.45;;;;;;;;;;5051852;28;20044;-84
2023/06/10 10:12:26;;;;;;;6.97;3.00;;;;;;;;;;5055440;28;20522;-84
2023/06/10 10:14:53;;;;;;;5.32;3.28;;;;;;;;;;5034088;28;20045;-84
2023/06/10 10:17:21;;;;;;;7.57;3.65;;;;;;;;;;5050969;28;20033;-84
2023/06/10 10:19:48;;;;;;;6.07;3.45;;;;;;;;;;5050551;28;20055;-85
2023/06/10 10:22:27;;;;;;;7.30;3.15;;;;;;;;;;5049691;28;20048;-85
2023/06/10 10:24:58;;;;;;;5.50;3.20;;;;;;;;;;5034330;28;20394;-85
2023/06/10 10:27:37;;;;;;;8.23;3.67;;;;;;;;;;5050054;28;20090;-85
2023/06/10 10:30:08;;;;;;;5.03;3.13;;;;;;;;;;5050985;28;20402;-84
2023/06/10 10:32:54;;;;;;;7.40;3.25;;;;;;;;;;5052120;28;20049;-83
2023/06/10 10:35:25;;;;;;;5.88;3.25;;;;;;;;;;5049557;28;20038;-83
2023/06/10 10:37:55;;;;;;;5.65;3.00;;;;;;;;;;5051460;28;20481;-83
2023/06/10 10:40:22;;;;;;;4.45;2.80;;;;;;;;;;5033606;28;20532;-82
2023/06/10 10:42:49;;;;;;;8.20;3.40;;;;;;;;;;5051155;28;20033;-84
2023/06/10 10:45:15;;;;;;;4.45;3.17;;;;;;;;;;5049574;28;20041;-83
2023/06/10 10:47:43;;;;;;;8.05;2.85;;;;;;;;;;5016845;28;20052;-83
2023/06/10 10:50:16;;;;;;;6.57;3.20;;;;;;;;;;5049489;28;20045;-82
2023/06/10 10:52:52;;;;;;;7.57;2.90;;;;;;;;;;5057048;28;20043;-82
2023/06/10 10:55:18;;;;;;;6.80;3.00;;;;;;;;;;5052807;28;20052;-83
2023/06/10 10:57:45;;;;;;;7.47;3.03;;;;;;;;;;5043825;28;20401;-83
2023/06/10 11:00:11;;;;;;;6.32;3.10;;;;;;;;;;5061984;28;20040;-83
2023/06/10 11:02:41;;;;;;;8.18;2.90;;;;;;;;;;5055806;28;20037;-83
2023/06/10 11:05:08;;;;;;;5.72;3.30;;;;;;;;;;5059508;28;20041;-82
2023/06/10 11:07:35;;;;;;;6.50;3.13;;;;;;;;;;5053220;28;20069;-83
2023/06/10 11:10:06;;;;;;;5.15;2.80;;;;;;;;;;5044500;28;20042;-83
2023/06/10 11:12:41;;;;;;;4.95;3.00;;;;;;;;;;5033189;28;20056;-83
2023/06/10 11:15:08;;;;;;;4.90;2.70;;;;;;;;;;5044329;28;20045;-82
2023/06/10 11:17:34;;;;;;;5.53;3.28;;;;;;;;;;5036491;28;20081;-82
2023/06/10 11:20:00;;;;;;;4.80;2.90;;;;;;;;;;5036558;28;20103;-83
2023/06/10 11:22:26;;;;;;;3.95;2.85;;;;;;;;;;5036737;28;20056;-82
2023/06/10 11:24:52;;;;;;;5.35;2.92;;;;;;;;;;5037361;28;20033;-83
2023/06/10 11:27:24;;;;;;;11.65;2.95;;;;;;;;;;5053581;28;20037;-83
2023/06/10 11:29:57;;;;;;;7.35;2.80;;;;;;;;;;5053194;28;20037;-82
2023/06/10 11:32:24;;;;;;;14.88;3.13;;;;;;;;;;5020802;28;20056;-82
2023/06/10 11:34:53;;;;;;;6.00;3.05;;;;;;;;;;5053204;28;20045;-83
2023/06/10 11:37:20;;;;;;;5.63;2.95;;;;;;;;;;5023480;28;20037;-81
2023/06/10 11:39:46;;;;;;;4.95;3.00;;;;;;;;;;5061948;28;20045;-83
2023/06/10 11:42:12;;;;;;;4.75;2.67;;;;;;;;;;5066377;28;20085;-82
2023/06/10 11:44:38;;;;;;;5.50;3.20;;;;;;;;;;5064236;28;20047;-83
2023/06/10 11:47:04;;;;;;;5.55;2.65;;;;;;;;;;5025952;28;20506;-82
2023/06/10 11:49:30;;;;;;;3.88;2.25;;;;;;;;;;5053542;28;20490;-83
2023/06/10 11:51:57;;;;;;;4.88;2.90;;;;;;;;;;5054943;28;20049;-83
2023/06/10 11:54:23;;;;;;;4.15;2.70;;;;;;;;;;5036915;28;20111;-82
2023/06/10 11:56:49;;;;;;;4.38;2.67;;;;;;;;;;5037063;28;20053;-82
2023/06/10 11:59:16;;;;;;;5.15;2.70;;;;;;;;;;5053944;28;20041;-82
2023/06/10 12:01:44;;;;;;;7.55;2.70;;;;;;;;;;5053648;28;20490;-83
2023/06/10 12:04:11;;;;;;;5.45;2.80;;;;;;;;;;5058492;28;20450;-83
2023/06/10 12:06:40;;;;;;;4.88;2.40;;;;;;;;;;5053610;28;20036;-84
2023/06/10 12:09:16;;;;;;;4.70;2.70;;;;;;;;;;5054530;28;20052;-83
2023/06/10 12:11:43;;;;;;;4.63;2.28;;;;;;;;;;5054366;28;20109;-83
2023/06/10 12:14:10;;;;;;;6.20;2.50;;;;;;;;;;5054310;28;20041;-84
2023/06/10 12:16:36;;;;;;;4.32;2.25;;;;;;;;;;5047758;28;20064;-84
2023/06/10 12:19:06;;;;;;;5.47;2.70;;;;;;;;;;5048346;28;20041;-84
2023/06/10 12:21:33;;;;;;;5.22;2.40;;;;;;;;;;5054000;28;20052;-85
2023/06/10 12:24:09;;;;;;;3.83;2.33;;;;;;;;;;5054337;28;20040;-83
2023/06/10 12:26:36;;;;;;;4.68;2.47;;;;;;;;;;5049987;28;20541;-84
2023/06/10 12:29:02;;;;;;;4.85;2.30;;;;;;;;;;5055281;28;20041;-84
2023/06/10 12:31:28;;;;;;;3.50;2.20;;;;;;;;;;5036409;28;20048;-83
2023/06/10 12:34:24;;;;;;;4.22;2.15;;;;;;;;;;5058280;28;20385;-84
2023/06/10 12:36:50;;;;;;;3.35;2.22;;;;;;;;;;5072571;28;20045;-84
2023/06/10 12:39:16;;;;;;;4.78;2.45;;;;;;;;;;5084917;28;20420;-83
2023/06/10 12:41:48;;;;;;;4.88;2.33;;;;;;;;;;5053473;28;20037;-83
2023/06/10 12:44:14;;;;;;;3.47;2.13;;;;;;;;;;5058935;28;20040;-83
2023/06/10 12:46:40;;;;;;;3.90;2.50;;;;;;;;;;5053285;28;20478;-82
2023/06/10 12:49:06;;;;;;;3.72;2.53;;;;;;;;;;5056048;28;20036;-83
2023/06/10 12:51:35;;;;;;;3.30;2.03;;;;;;;;;;5053136;28;20052;-84
2023/06/10 12:54:02;;;;;;;5.75;2.63;;;;;;;;;;5053467;28;20094;-84
2023/06/10 12:56:28;;;;;;;3.67;2.30;;;;;;;;;;5054135;28;20047;-83
2023/06/10 12:58:54;;;;;;;3.63;2.10;;;;;;;;;;5036086;28;20044;-84
2023/06/10 13:01:21;;;;;;;3.40;2.15;;;;;;;;;;5058488;28;20045;-84
2023/06/10 13:03:47;;;;;;;6.47;2.13;;;;;;;;;;5051709;28;20041;-83
2023/06/10 13:06:14;;;;;;;6.28;2.35;;;;;;;;;;5053272;28;20040;-84
2023/06/10 13:08:40;;;;;;;4.20;2.20;;;;;;;;;;5085749;28;20401;-84
2023/06/10 13:11:07;;;;;;;2.88;2.00;;;;;;;;;;5038194;28;20037;-84
2023/06/10 13:13:33;;;;;;;4.68;2.58;;;;;;;;;;5052795;28;20053;-84
2023/06/10 13:15:59;;;;;;;3.15;2.03;;;;;;;;;;5051943;28;20057;-84
2023/06/10 13:18:25;;;;;;;3.47;1.95;;;;;;;;;;5049428;28;20045;-83
2023/06/10 13:20:51;;;;;;;5.82;2.28;;;;;;;;;;5048225;28;20048;-83
2023/06/10 13:23:17;;;;;;;3.78;2.00;;;;;;;;;;5067923;28;20112;-84
2023/06/10 13:25:44;;;;;;;3.13;2.15;;;;;;;;;;5052745;28;20110;-84
2023/06/10 13:28:11;;;;;;;3.17;2.10;;;;;;;;;;5053045;28;20036;-84
2023/06/10 13:30:37;;;;;;;3.47;2.20;;;;;;;;;;5035879;28;20029;-84
2023/06/10 13:33:03;;;;;;;4.10;2.08;;;;;;;;;;5053634;28;20045;-84
2023/06/10 13:35:29;;;;;;;3.33;2.15;;;;;;;;;;5036341;28;20068;-84
2023/06/10 13:37:55;;;;;;;3.33;2.20;;;;;;;;;;5052945;28;20045;-84
2023/06/10 13:40:22;;;;;;;5.40;2.15;;;;;;;;;;5042939;28;20041;-84
2023/06/10 13:42:50;;;;;;;5.97;2.38;;;;;;;;;;5052043;28;20052;-84
2023/06/10 13:45:17;;;;;;;7.13;2.40;;;;;;;;;;5053722;28;20040;-84
2023/06/10 13:47:43;;;;;;;7.00;2.33;;;;;;;;;;5059701;28;20084;-84
2023/06/10 13:50:10;;;;;;;5.32;2.60;;;;;;;;;;5052755;28;20045;-84
2023/06/10 13:52:36;;;;;;;3.85;2.40;;;;;;;;;;5060048;28;20079;-83
2023/06/10 13:55:02;;;;;;;4.75;2.10;;;;;;;;;;5052218;28;20387;-84
2023/06/10 13:57:28;;;;;;;5.03;2.40;;;;;;;;;;5053244;28;20040;-84
2023/06/10 13:59:55;;;;;;;6.00;2.40;;;;;;;;;;5051841;28;20547;-83
2023/06/10 14:02:21;;;;;;;3.53;2.08;;;;;;;;;;5036681;28;20048;-83
2023/06/10 14:04:48;;;;;;;3.55;2.05;;;;;;;;;;5052110;28;20040;-84
2023/06/10 14:07:15;;;;;;;5.05;2.45;;;;;;;;;;5035332;28;20048;-84
2023/06/10 14:09:41;;;;;;;3.67;2.10;;;;;;;;;;5052143;28;20508;-84
2023/06/10 14:12:07;;;;;;;4.13;2.10;;;;;;;;;;5056671;28;20457;-83
2023/06/10 14:14:33;;;;;;;5.07;2.40;;;;;;;;;;5053301;28;20494;-84
2023/06/10 14:17:00;;;;;;;4.97;2.30;;;;;;;;;;5033809;28;20144;-84
2023/06/10 14:19:26;;;;;;;3.65;2.15;;;;;;;;;;5050265;28;20116;-84
2023/06/10 14:21:53;;;;;;;5.35;2.42;;;;;;;;;;5050684;28;20043;-84
2023/06/10 14:24:19;;;;;;;4.25;2.40;;;;;;;;;;5035495;28;20494;-84
2023/06/10 14:26:45;;;;;;;4.07;2.10;;;;;;;;;;5050940;28;20063;-84
2023/06/10 14:29:14;;;;;;;4.20;2.17;;;;;;;;;;5049275;28;20101;-84
2023/06/10 14:31:40;;;;;;;4.63;2.38;;;;;;;;;;5054296;28;20045;-84
2023/06/10 14:34:07;;;;;;;7.07;2.30;;;;;;;;;;5061228;28;20044;-85
2023/06/10 14:36:34;;;;;;;3.83;2.30;;;;;;;;;;5042726;28;20037;-84
2023/06/10 14:39:00;;;;;;;4.38;2.10;;;;;;;;;;5037608;28;20397;-84
2023/06/10 14:41:27;;;;;;;3.92;1.90;;;;;;;;;;5037837;28;20056;-84